KRKS/RKS METAR and TAF weather

Enter ICAO airport designator
Station Type Date Time Source
KRKS METAR 2021/09/16 09:54 UTC NOAA

KRKS 160954Z AUTO 19005KT 10SM CLR 14/M02 A3001 RMK AO2 SLP075 T01391022


Station Type Date Time Source
KRKS Decoded METAR 2021/09/16 09:54 UTC NOAA

ROCK SPRINGS-SWEETWATER CO, WY, United States (KRKS) 41-36N 109-03W
Sep 16, 2021 - 05:54 AM EDT / 2021.09.16 0954 UTC
Wind: from the S (190 degrees) at 6 MPH (5 KT):0
Visibility: 10 mile(s):0
Sky conditions: clear
Temperature: 57.0 F (13.9 C)
Dew Point: 28.0 F (-2.2 C)
Relative Humidity: 32%
Pressure (altimeter): 30.01 in. Hg (1016 hPa)
ob: KRKS 160954Z AUTO 19005KT 10SM CLR 14/M02 A3001 RMK AO2 SLP075 T01391022
cycle: 10

Station Type Date Time Source
KRKS TAF 2021/09/16 06:36 UTC NOAA

TAF KRKS 160532Z 1606/1706 24009KT P6SM SKC
FM161800 26011KT P6SM FEW200
FM162100 26014G24KT P6SM FEW200
FM170400 06009KT P6SM SCT200

Example: see airport list